Time;durP1;ratioP1;P1;durP2;ratioP2;P2;SDS_P1;SDS_P2;PMS_P1;PMS_P2;Temp;Humidity;BMP_temperature;BMP_pressure;BME280_temperature;BME280_humidity;BME280_pressure;Samples;Min_cycle;Max_cycle;Signal;HPM_P1;HPM_P2
2023/11/10 00:00:10;;;;;;;;;1.67;1.00;;;;;;;;5059390;28;45453;-81
2023/11/10 00:02:38;;;;;;;;;2.00;2.00;;;;;;;;5058320;28;48433;-81
2023/11/10 00:05:03;;;;;;;;;1.33;1.33;;;;;;;;5058338;28;45704;-81
2023/11/10 00:07:28;;;;;;;;;3.33;2.00;;;;;;;;5059521;28;45249;-81
2023/11/10 00:09:54;;;;;;;;;1.33;1.33;;;;;;;;5059438;28;45220;-81
2023/11/10 00:12:19;;;;;;;;;3.33;3.00;;;;;;;;5059503;28;45242;-80
2023/11/10 00:14:45;;;;;;;;;2.33;2.00;;;;;;;;5058260;28;45267;-82
2023/11/10 00:17:10;;;;;;;;;1.67;1.00;;;;;;;;5059738;28;45255;-82
2023/11/10 00:19:39;;;;;;;;;1.00;1.00;;;;;;;;5059513;28;45196;-81
2023/11/10 00:22:09;;;;;;;;;1.67;1.33;;;;;;;;5059406;28;46238;-81
2023/11/10 00:24:39;;;;;;;;;2.67;0.00;;;;;;;;5057824;28;45539;-82
2023/11/10 00:27:05;;;;;;;;;1.00;1.00;;;;;;;;5059664;28;45486;-82
2023/11/10 00:29:30;;;;;;;;;1.00;1.00;;;;;;;;5069441;28;45558;-82
2023/11/10 00:31:56;;;;;;;;;2.00;2.00;;;;;;;;5079737;28;45335;-82
2023/11/10 00:34:21;;;;;;;;;0.33;0.33;;;;;;;;5079721;28;45350;-81
2023/11/10 00:36:46;;;;;;;;;2.00;2.00;;;;;;;;5079681;28;45250;-80
2023/11/10 00:39:11;;;;;;;;;2.67;2.67;;;;;;;;5079566;28;45212;-80
2023/11/10 00:41:36;;;;;;;;;3.00;2.00;;;;;;;;5078011;28;47011;-80
2023/11/10 00:44:02;;;;;;;;;0.67;0.67;;;;;;;;5079591;28;45335;-81
2023/11/10 00:46:27;;;;;;;;;0.00;0.00;;;;;;;;5079627;28;45324;-82
2023/11/10 00:48:52;;;;;;;;;4.33;3.00;;;;;;;;5079338;28;45247;-80
2023/11/10 00:51:17;;;;;;;;;1.00;1.00;;;;;;;;5079330;28;45411;-81
2023/11/10 00:53:43;;;;;;;;;1.00;1.00;;;;;;;;5079338;28;45227;-80
2023/11/10 00:56:08;;;;;;;;;0.00;0.00;;;;;;;;5078039;28;45280;-80
2023/11/10 00:58:33;;;;;;;;;3.33;2.00;;;;;;;;5079161;28;45462;-80
2023/11/10 01:00:58;;;;;;;;;5.00;2.00;;;;;;;;5077821;28;48279;-82
2023/11/10 01:03:23;;;;;;;;;2.33;1.00;;;;;;;;5081252;28;45134;-82
2023/11/10 01:05:49;;;;;;;;;3.33;1.00;;;;;;;;5082752;28;45300;-80
2023/11/10 01:08:14;;;;;;;;;1.00;1.00;;;;;;;;5081188;28;46036;-81
2023/11/10 01:10:39;;;;;;;;;2.00;2.00;;;;;;;;5082507;28;45265;-82
2023/11/10 01:13:04;;;;;;;;;1.00;1.00;;;;;;;;5082812;28;45263;-81
2023/11/10 01:15:30;;;;;;;;;1.33;1.33;;;;;;;;5082783;28;45423;-81
2023/11/10 01:17:55;;;;;;;;;1.67;1.33;;;;;;;;5082571;28;45250;-81
2023/11/10 01:20:20;;;;;;;;;1.00;1.00;;;;;;;;5064121;28;47383;-81
2023/11/10 01:22:45;;;;;;;;;1.00;1.00;;;;;;;;5081271;28;45815;-81
2023/11/10 01:25:13;;;;;;;;;1.33;1.00;;;;;;;;5081173;28;45606;-81
2023/11/10 01:27:39;;;;;;;;;1.00;1.00;;;;;;;;5080253;28;47207;-82
2023/11/10 01:30:05;;;;;;;;;2.00;2.00;;;;;;;;5066364;28;45285;-81
2023/11/10 01:32:30;;;;;;;;;1.67;1.67;;;;;;;;5062052;28;45382;-80
2023/11/10 01:34:55;;;;;;;;;2.00;1.67;;;;;;;;5062081;28;45535;-79
2023/11/10 01:37:21;;;;;;;;;1.00;0.00;;;;;;;;5061993;28;45327;-81
2023/11/10 01:39:47;;;;;;;;;3.33;2.00;;;;;;;;5061648;28;45320;-81
2023/11/10 01:42:13;;;;;;;;;1.33;1.33;;;;;;;;5061900;28;45142;-81
2023/11/10 01:44:38;;;;;;;;;1.00;1.00;;;;;;;;5061978;28;45185;-80
2023/11/10 01:47:04;;;;;;;;;1.00;1.00;;;;;;;;5061873;28;45239;-80
2023/11/10 01:49:30;;;;;;;;;2.00;2.00;;;;;;;;5061609;28;46060;-81
2023/11/10 01:51:55;;;;;;;;;1.33;1.33;;;;;;;;5061513;28;45246;-81
2023/11/10 01:54:23;;;;;;;;;2.00;1.00;;;;;;;;5061773;28;45232;-81
2023/11/10 01:56:50;;;;;;;;;1.00;1.00;;;;;;;;5061597;28;45443;-80
2023/11/10 01:59:15;;;;;;;;;1.00;1.00;;;;;;;;5059985;28;48624;-81
2023/11/10 02:01:41;;;;;;;;;0.00;0.00;;;;;;;;5061398;28;45378;-79
2023/11/10 02:04:07;;;;;;;;;2.00;2.00;;;;;;;;5061935;28;45252;-82
2023/11/10 02:06:32;;;;;;;;;3.00;3.00;;;;;;;;5060065;28;46374;-81
2023/11/10 02:08:59;;;;;;;;;3.67;2.67;;;;;;;;5061136;28;45380;-80
2023/11/10 02:11:26;;;;;;;;;2.00;1.00;;;;;;;;5059961;28;45238;-81
2023/11/10 02:13:57;;;;;;;;;2.00;2.00;;;;;;;;5061354;28;45412;-81
2023/11/10 02:16:23;;;;;;;;;1.00;1.00;;;;;;;;5061140;28;45374;-81
2023/11/10 02:18:49;;;;;;;;;2.00;0.33;;;;;;;;5061132;28;46617;-81
2023/11/10 02:21:14;;;;;;;;;2.00;2.00;;;;;;;;5061161;28;45458;-81
2023/11/10 02:23:39;;;;;;;;;0.00;0.00;;;;;;;;5061679;28;45192;-81
2023/11/10 02:26:04;;;;;;;;;2.33;2.33;;;;;;;;5061002;28;45545;-80
2023/11/10 02:28:30;;;;;;;;;1.33;1.00;;;;;;;;5061379;28;47218;-79
2023/11/10 02:30:55;;;;;;;;;2.00;1.00;;;;;;;;5080082;28;45220;-81
2023/11/10 02:33:20;;;;;;;;;2.33;2.00;;;;;;;;5081793;28;45287;-81
2023/11/10 02:35:45;;;;;;;;;2.00;2.00;;;;;;;;5081201;28;45235;-82
2023/11/10 02:38:10;;;;;;;;;2.33;1.33;;;;;;;;5081436;28;46048;-81
2023/11/10 02:40:35;;;;;;;;;1.00;0.67;;;;;;;;5081461;28;45416;-81
2023/11/10 02:43:02;;;;;;;;;2.00;1.00;;;;;;;;5080096;28;45381;-81
2023/11/10 02:45:27;;;;;;;;;1.00;1.00;;;;;;;;5062586;28;46212;-81
2023/11/10 02:47:52;;;;;;;;;2.00;2.00;;;;;;;;5079753;28;48188;-81
2023/11/10 02:50:18;;;;;;;;;2.00;1.00;;;;;;;;5079630;28;45536;-82
2023/11/10 02:52:43;;;;;;;;;1.00;1.00;;;;;;;;5081333;28;45245;-81
2023/11/10 02:55:08;;;;;;;;;1.00;1.00;;;;;;;;5080909;28;45354;-80
2023/11/10 02:57:33;;;;;;;;;3.00;1.00;;;;;;;;5081111;28;46343;-80
2023/11/10 03:00:00;;;;;;;;;2.00;0.67;;;;;;;;5080685;28;45406;-81
2023/11/10 03:02:25;;;;;;;;;1.00;1.00;;;;;;;;5081038;28;45309;-80
2023/11/10 03:04:50;;;;;;;;;2.00;0.00;;;;;;;;5080912;28;45312;-80
2023/11/10 03:07:16;;;;;;;;;2.00;2.00;;;;;;;;5079248;28;47480;-82
2023/11/10 03:09:42;;;;;;;;;0.00;0.00;;;;;;;;5080811;28;45222;-81
2023/11/10 03:12:08;;;;;;;;;2.00;1.00;;;;;;;;5080936;28;45290;-81
2023/11/10 03:14:33;;;;;;;;;1.00;1.00;;;;;;;;5080798;28;45418;-82
2023/11/10 03:16:58;;;;;;;;;1.67;1.33;;;;;;;;5079452;28;47083;-81
2023/11/10 03:19:24;;;;;;;;;2.00;2.00;;;;;;;;5080668;28;45251;-82
2023/11/10 03:21:49;;;;;;;;;1.00;1.00;;;;;;;;5080508;28;45473;-82
2023/11/10 03:24:14;;;;;;;;;2.00;1.00;;;;;;;;5078937;28;46280;-82
2023/11/10 03:26:40;;;;;;;;;0.67;0.67;;;;;;;;5078124;28;47208;-81
2023/11/10 03:29:07;;;;;;;;;1.00;1.00;;;;;;;;5073510;28;45278;-80
2023/11/10 03:31:32;;;;;;;;;2.00;2.00;;;;;;;;5060480;28;45252;-80
2023/11/10 03:33:57;;;;;;;;;1.00;1.00;;;;;;;;5060073;28;45316;-80
2023/11/10 03:36:23;;;;;;;;;3.00;1.67;;;;;;;;5059870;28;45391;-80
2023/11/10 03:38:48;;;;;;;;;1.00;1.00;;;;;;;;5060055;28;45284;-79
2023/11/10 03:41:13;;;;;;;;;2.33;2.00;;;;;;;;5059927;28;45331;-80
2023/11/10 03:43:38;;;;;;;;;1.00;1.00;;;;;;;;5060015;28;45354;-81
2023/11/10 03:46:03;;;;;;;;;1.33;1.33;;;;;;;;5075511;28;47051;-81
2023/11/10 03:48:29;;;;;;;;;1.00;1.00;;;;;;;;5058447;28;46077;-80
2023/11/10 03:50:54;;;;;;;;;1.00;1.00;;;;;;;;5060042;28;45370;-80
2023/11/10 03:53:20;;;;;;;;;1.00;1.00;;;;;;;;5058530;28;46924;-81
2023/11/10 03:55:45;;;;;;;;;4.00;1.00;;;;;;;;5059591;28;45653;-79
2023/11/10 03:58:10;;;;;;;;;0.33;0.33;;;;;;;;5059929;28;45299;-81
2023/11/10 04:00:37;;;;;;;;;1.00;1.00;;;;;;;;5058407;28;45328;-80
2023/11/10 04:03:02;;;;;;;;;3.00;1.00;;;;;;;;5058534;28;46157;-82
2023/11/10 04:05:28;;;;;;;;;1.33;1.00;;;;;;;;5059569;28;45338;-80
2023/11/10 04:07:54;;;;;;;;;1.00;1.00;;;;;;;;5059487;28;45421;-81
2023/11/10 04:10:21;;;;;;;;;1.67;0.67;;;;;;;;5059621;28;45258;-81
2023/11/10 04:12:46;;;;;;;;;1.00;1.00;;;;;;;;5059518;28;45323;-81
2023/11/10 04:15:11;;;;;;;;;0.67;0.67;;;;;;;;5057967;28;47091;-81
2023/11/10 04:17:36;;;;;;;;;1.33;1.33;;;;;;;;5059644;28;45348;-81
2023/11/10 04:20:02;;;;;;;;;1.00;1.00;;;;;;;;5059624;28;45315;-80
2023/11/10 04:22:27;;;;;;;;;2.00;2.00;;;;;;;;5059405;28;45438;-80
2023/11/10 04:24:54;;;;;;;;;1.33;1.33;;;;;;;;5059170;28;45573;-80
2023/11/10 04:27:20;;;;;;;;;2.33;2.00;;;;;;;;5058043;28;45398;-80
2023/11/10 04:29:47;;;;;;;;;0.00;0.00;;;;;;;;5058087;28;45477;-79
2023/11/10 04:32:12;;;;;;;;;0.00;0.00;;;;;;;;5059391;28;45227;-80
2023/11/10 04:34:37;;;;;;;;;0.00;0.00;;;;;;;;5059258;28;45651;-79
2023/11/10 04:37:06;;;;;;;;;1.67;1.67;;;;;;;;5059389;28;45207;-81
2023/11/10 04:39:31;;;;;;;;;1.00;1.00;;;;;;;;5062899;28;45413;-80
2023/11/10 04:41:56;;;;;;;;;0.67;0.67;;;;;;;;5062894;28;45330;-80
2023/11/10 04:44:23;;;;;;;;;2.00;1.00;;;;;;;;5061645;28;47175;-81
2023/11/10 04:46:48;;;;;;;;;1.00;1.00;;;;;;;;5062882;28;45417;-80
2023/11/10 04:49:13;;;;;;;;;2.00;1.00;;;;;;;;5062872;28;45251;-81
2023/11/10 04:51:38;;;;;;;;;0.00;0.00;;;;;;;;5062589;28;45310;-79
2023/11/10 04:54:04;;;;;;;;;1.67;1.00;;;;;;;;5061360;28;47460;-80
2023/11/10 04:56:29;;;;;;;;;1.00;1.00;;;;;;;;5077968;28;45872;-80
2023/11/10 04:58:55;;;;;;;;;0.67;0.67;;;;;;;;5062436;28;45270;-79
2023/11/10 05:01:20;;;;;;;;;0.00;0.00;;;;;;;;5078194;28;47268;-80
2023/11/10 05:03:45;;;;;;;;;0.67;0.67;;;;;;;;5062482;28;45526;-81
2023/11/10 05:06:10;;;;;;;;;2.33;1.33;;;;;;;;5062522;28;45327;-81
2023/11/10 05:08:36;;;;;;;;;1.00;0.33;;;;;;;;5062440;28;45302;-81
2023/11/10 05:11:01;;;;;;;;;4.00;0.67;;;;;;;;5062240;28;45204;-81
2023/11/10 05:13:26;;;;;;;;;3.00;2.00;;;;;;;;5062318;28;45184;-80
2023/11/10 05:15:51;;;;;;;;;1.00;1.00;;;;;;;;5062334;28;45270;-79
2023/11/10 05:18:16;;;;;;;;;0.33;0.33;;;;;;;;5062749;28;45209;-80
2023/11/10 05:20:42;;;;;;;;;1.67;1.00;;;;;;;;5062115;28;45216;-80
2023/11/10 05:23:07;;;;;;;;;2.00;1.33;;;;;;;;5062315;28;45257;-79
2023/11/10 05:25:32;;;;;;;;;0.00;0.00;;;;;;;;5077724;28;45536;-80
2023/11/10 05:27:57;;;;;;;;;1.00;1.00;;;;;;;;5062336;28;45207;-81
2023/11/10 05:30:24;;;;;;;;;1.00;1.00;;;;;;;;5079534;28;45282;-79
2023/11/10 05:32:49;;;;;;;;;2.67;1.67;;;;;;;;5082351;28;46005;-80
2023/11/10 05:35:15;;;;;;;;;1.00;1.00;;;;;;;;5063604;28;45797;-81
2023/11/10 05:37:40;;;;;;;;;2.00;2.00;;;;;;;;5081324;28;45280;-80
2023/11/10 05:40:06;;;;;;;;;3.00;2.00;;;;;;;;5082066;28;45146;-80
2023/11/10 05:42:31;;;;;;;;;2.33;1.33;;;;;;;;5082109;28;45381;-79
2023/11/10 05:44:56;;;;;;;;;2.00;1.67;;;;;;;;5063869;28;45832;-80
2023/11/10 05:47:21;;;;;;;;;1.00;1.00;;;;;;;;5082208;28;45340;-80
2023/11/10 05:49:47;;;;;;;;;0.00;0.00;;;;;;;;5081084;28;45281;-80
2023/11/10 05:52:13;;;;;;;;;1.33;1.00;;;;;;;;5063585;28;47295;-80
2023/11/10 05:54:39;;;;;;;;;2.00;0.00;;;;;;;;5063584;28;45368;-80
2023/11/10 05:57:05;;;;;;;;;4.00;1.00;;;;;;;;5082130;28;45501;-80
2023/11/10 05:59:30;;;;;;;;;1.00;1.00;;;;;;;;5081633;28;45470;-79
2023/11/10 06:01:56;;;;;;;;;3.33;3.33;;;;;;;;5063576;28;47489;-81
2023/11/10 06:04:23;;;;;;;;;1.00;1.00;;;;;;;;5081789;28;45252;-80
2023/11/10 06:06:48;;;;;;;;;2.00;1.00;;;;;;;;5081780;28;45492;-80
2023/11/10 06:09:16;;;;;;;;;3.00;1.00;;;;;;;;5081397;28;45367;-80
2023/11/10 06:11:42;;;;;;;;;4.00;1.00;;;;;;;;5063418;28;47555;-80
2023/11/10 06:14:10;;;;;;;;;1.00;1.00;;;;;;;;5063367;28;45370;-81
2023/11/10 06:16:35;;;;;;;;;2.00;2.00;;;;;;;;5081674;28;45408;-82
2023/11/10 06:19:00;;;;;;;;;2.25;0.75;;;;;;;;5081960;28;45579;-81
2023/11/10 06:21:25;;;;;;;;;1.00;1.00;;;;;;;;5081423;28;46115;-79
2023/11/10 06:23:50;;;;;;;;;1.33;1.33;;;;;;;;5082042;28;45429;-79
2023/11/10 06:26:19;;;;;;;;;1.00;1.00;;;;;;;;5061514;28;45360;-79
2023/11/10 06:28:46;;;;;;;;;1.67;1.00;;;;;;;;5062241;28;45957;-79
2023/11/10 06:31:12;;;;;;;;;1.00;1.00;;;;;;;;5080805;28;45551;-78
2023/11/10 06:33:39;;;;;;;;;2.00;2.00;;;;;;;;5080463;28;45456;-80
2023/11/10 06:36:04;;;;;;;;;0.33;0.33;;;;;;;;5078635;27;45320;-79
2023/11/10 06:38:30;;;;;;;;;2.00;1.00;;;;;;;;5080717;28;45376;-80
2023/11/10 06:40:55;;;;;;;;;1.67;1.67;;;;;;;;5080636;28;45339;-78
2023/11/10 06:43:21;;;;;;;;;0.67;0.67;;;;;;;;5080766;28;45281;-78
2023/11/10 06:45:46;;;;;;;;;1.00;1.00;;;;;;;;5080847;27;45229;-80
2023/11/10 06:48:11;;;;;;;;;1.00;1.00;;;;;;;;5081308;28;45422;-80
2023/11/10 06:50:36;;;;;;;;;2.00;1.00;;;;;;;;5081177;28;45346;-79
2023/11/10 06:53:01;;;;;;;;;2.67;1.00;;;;;;;;5081227;28;45287;-80
2023/11/10 06:55:27;;;;;;;;;5.33;2.67;;;;;;;;5080941;28;45449;-79
2023/11/10 06:57:52;;;;;;;;;3.00;2.00;;;;;;;;5080108;28;46465;-80
2023/11/10 07:00:17;;;;;;;;;3.00;3.00;;;;;;;;5080253;28;46660;-80
2023/11/10 07:02:43;;;;;;;;;1.67;1.00;;;;;;;;5079766;28;45943;-80
2023/11/10 07:05:09;;;;;;;;;2.33;2.00;;;;;;;;5062755;28;45296;-80
2023/11/10 07:07:34;;;;;;;;;6.00;3.00;;;;;;;;5080609;28;45200;-77
2023/11/10 07:10:00;;;;;;;;;2.00;2.00;;;;;;;;5063109;28;47403;-76
2023/11/10 07:12:26;;;;;;;;;3.00;2.00;;;;;;;;5081764;28;45330;-79
2023/11/10 07:14:51;;;;;;;;;1.33;1.33;;;;;;;;5081265;28;45495;-82
2023/11/10 07:17:17;;;;;;;;;2.67;2.67;;;;;;;;5081610;28;45419;-78
2023/11/10 07:19:42;;;;;;;;;2.67;1.00;;;;;;;;5081633;28;46025;-80
2023/11/10 07:22:07;;;;;;;;;2.00;2.00;;;;;;;;5080314;28;45308;-78
2023/11/10 07:24:32;;;;;;;;;2.00;1.67;;;;;;;;5078015;28;45438;-79
2023/11/10 07:26:57;;;;;;;;;4.00;2.67;;;;;;;;5080615;28;45317;-79
2023/11/10 07:29:23;;;;;;;;;2.00;2.00;;;;;;;;5069372;28;48283;-78
2023/11/10 07:31:48;;;;;;;;;2.00;2.00;;;;;;;;5058658;28;45607;-79
2023/11/10 07:34:14;;;;;;;;;2.67;2.00;;;;;;;;5040496;28;45332;-79
2023/11/10 07:36:39;;;;;;;;;2.67;2.67;;;;;;;;5059748;28;45474;-78
2023/11/10 07:39:04;;;;;;;;;1.67;1.67;;;;;;;;5058696;28;47532;-79
2023/11/10 07:41:30;;;;;;;;;2.33;1.67;;;;;;;;5058816;28;45614;-78
2023/11/10 07:43:55;;;;;;;;;1.33;1.33;;;;;;;;5058880;28;45462;-79
2023/11/10 07:46:20;;;;;;;;;2.00;1.00;;;;;;;;5060073;28;45425;-78
2023/11/10 07:48:45;;;;;;;;;2.00;2.00;;;;;;;;5078248;28;46324;-79
2023/11/10 07:51:10;;;;;;;;;3.00;1.67;;;;;;;;5061539;28;46184;-79
2023/11/10 07:53:36;;;;;;;;;1.00;1.00;;;;;;;;5080335;28;45293;-79
2023/11/10 07:56:01;;;;;;;;;2.00;1.00;;;;;;;;5079574;28;45252;-79
2023/11/10 07:58:26;;;;;;;;;1.00;1.00;;;;;;;;5079851;28;45362;-79
2023/11/10 08:00:51;;;;;;;;;2.00;2.00;;;;;;;;5079577;28;45462;-79
2023/11/10 08:03:17;;;;;;;;;2.00;2.00;;;;;;;;5079733;28;45363;-79
2023/11/10 08:05:42;;;;;;;;;2.00;2.00;;;;;;;;5079823;28;45517;-76
2023/11/10 08:08:08;;;;;;;;;3.00;3.00;;;;;;;;5079687;28;45236;-78
2023/11/10 08:10:36;;;;;;;;;5.00;1.67;;;;;;;;5079953;28;45154;-78
2023/11/10 08:13:01;;;;;;;;;3.67;3.00;;;;;;;;5079329;28;45373;-78
2023/11/10 08:15:26;;;;;;;;;3.67;0.00;;;;;;;;5079098;28;45344;-78
2023/11/10 08:17:52;;;;;;;;;1.67;1.00;;;;;;;;5060933;28;47153;-79
2023/11/10 08:20:18;;;;;;;;;2.33;1.00;;;;;;;;5060724;28;45865;-78
2023/11/10 08:22:44;;;;;;;;;3.00;2.00;;;;;;;;5061055;28;45339;-79
2023/11/10 08:25:11;;;;;;;;;2.00;2.00;;;;;;;;5078839;28;45349;-78
2023/11/10 08:27:36;;;;;;;;;1.33;1.33;;;;;;;;5058070;28;47683;-79
2023/11/10 08:30:02;;;;;;;;;2.00;2.00;;;;;;;;5060821;28;46017;-79
2023/11/10 08:32:28;;;;;;;;;2.00;2.00;;;;;;;;5078994;28;45470;-79
2023/11/10 08:34:55;;;;;;;;;2.00;2.00;;;;;;;;5078840;28;45482;-78
2023/11/10 08:37:20;;;;;;;;;0.00;0.00;;;;;;;;5078604;28;45513;-79
2023/11/10 08:39:45;;;;;;;;;2.33;2.33;;;;;;;;5078817;28;45432;-78
2023/11/10 08:42:11;;;;;;;;;3.33;1.00;;;;;;;;5060739;28;45557;-78
2023/11/10 08:44:36;;;;;;;;;1.00;1.00;;;;;;;;5060367;28;47012;-78
2023/11/10 08:47:01;;;;;;;;;3.00;1.67;;;;;;;;5060526;28;47570;-79
2023/11/10 08:49:26;;;;;;;;;0.67;0.67;;;;;;;;5078654;28;45539;-78
2023/11/10 08:51:51;;;;;;;;;1.67;1.00;;;;;;;;5060418;28;45266;-78
2023/11/10 08:54:18;;;;;;;;;1.00;1.00;;;;;;;;5078642;28;45340;-79
2023/11/10 08:56:44;;;;;;;;;1.33;1.33;;;;;;;;5078502;28;45340;-78
2023/11/10 08:59:09;;;;;;;;;4.00;2.00;;;;;;;;5061386;27;45571;-78
2023/11/10 09:01:34;;;;;;;;;3.00;3.00;;;;;;;;5078139;28;45823;-78
2023/11/10 09:03:59;;;;;;;;;2.67;1.33;;;;;;;;5078475;28;45692;-78
2023/11/10 09:06:25;;;;;;;;;3.00;2.00;;;;;;;;5059822;28;47161;-80
2023/11/10 09:08:50;;;;;;;;;1.33;1.33;;;;;;;;5078668;28;45315;-78
2023/11/10 09:11:16;;;;;;;;;1.00;0.67;;;;;;;;5078893;28;45333;-79
2023/11/10 09:13:41;;;;;;;;;1.33;1.00;;;;;;;;5077084;28;45975;-76
2023/11/10 09:16:07;;;;;;;;;1.67;1.00;;;;;;;;5078626;28;45990;-79
2023/11/10 09:18:32;;;;;;;;;3.33;2.00;;;;;;;;5060389;28;45959;-78
2023/11/10 09:20:58;;;;;;;;;2.00;2.00;;;;;;;;5060311;28;45263;-78
2023/11/10 09:23:23;;;;;;;;;2.33;2.33;;;;;;;;5078425;28;45351;-78
2023/11/10 09:25:49;;;;;;;;;2.00;2.00;;;;;;;;5081263;28;46042;-79
2023/11/10 09:28:14;;;;;;;;;4.67;1.00;;;;;;;;5080331;28;45489;-81
2023/11/10 09:30:39;;;;;;;;;1.00;1.00;;;;;;;;5062066;28;45517;-79
2023/11/10 09:33:04;;;;;;;;;3.00;3.00;;;;;;;;5081529;28;45631;-80
2023/11/10 09:35:32;;;;;;;;;2.00;1.00;;;;;;;;5063899;28;47018;-78
2023/11/10 09:37:57;;;;;;;;;2.00;2.00;;;;;;;;5079093;28;45369;-79
2023/11/10 09:40:23;;;;;;;;;3.33;2.00;;;;;;;;5064198;28;45426;-78
2023/11/10 09:42:48;;;;;;;;;1.00;1.00;;;;;;;;5082225;28;45402;-78
2023/11/10 09:45:15;;;;;;;;;4.33;3.00;;;;;;;;5081588;28;45361;-80
2023/11/10 09:47:40;;;;;;;;;1.00;1.00;;;;;;;;5063032;28;45329;-79
2023/11/10 09:50:08;;;;;;;;;4.67;2.67;;;;;;;;5081314;28;45989;-81
2023/11/10 09:52:34;;;;;;;;;1.00;1.00;;;;;;;;5082658;28;45362;-82
2023/11/10 09:54:59;;;;;;;;;3.00;3.00;;;;;;;;5082614;27;45368;-82
2023/11/10 09:57:25;;;;;;;;;2.00;1.00;;;;;;;;5071555;28;45292;-80
2023/11/10 09:59:52;;;;;;;;;1.00;1.00;;;;;;;;5080771;28;45383;-79
2023/11/10 10:02:18;;;;;;;;;2.00;2.00;;;;;;;;5083015;28;45604;-79
2023/11/10 10:04:43;;;;;;;;;1.00;1.00;;;;;;;;5063808;28;48105;-80
2023/11/10 10:07:09;;;;;;;;;2.00;2.00;;;;;;;;5081049;28;45416;-80
2023/11/10 10:09:35;;;;;;;;;4.33;2.00;;;;;;;;5080743;28;45724;-79
2023/11/10 10:12:00;;;;;;;;;2.00;2.00;;;;;;;;5082962;28;45306;-81
2023/11/10 10:14:25;;;;;;;;;1.00;1.00;;;;;;;;5070165;28;45461;-81
2023/11/10 10:16:54;;;;;;;;;2.00;2.00;;;;;;;;5076349;28;45245;-79
2023/11/10 10:19:23;;;;;;;;;2.67;2.67;;;;;;;;5081953;28;45527;-81
2023/11/10 10:21:48;;;;;;;;;2.00;1.00;;;;;;;;5082225;28;45417;-79
2023/11/10 10:24:13;;;;;;;;;3.33;2.00;;;;;;;;5063140;28;48005;-80
2023/11/10 10:26:39;;;;;;;;;2.00;1.33;;;;;;;;5082621;28;45556;-80
2023/11/10 10:29:05;;;;;;;;;2.00;2.00;;;;;;;;5076595;28;45256;-79
2023/11/10 10:31:30;;;;;;;;;2.33;1.00;;;;;;;;5065073;28;45315;-80
2023/11/10 10:33:56;;;;;;;;;1.00;1.00;;;;;;;;5081405;28;45487;-77
2023/11/10 10:36:21;;;;;;;;;4.67;2.33;;;;;;;;5082622;28;45345;-79
2023/11/10 10:38:50;;;;;;;;;4.33;3.00;;;;;;;;5077458;28;45285;-82
2023/11/10 10:41:18;;;;;;;;;0.67;0.67;;;;;;;;5081366;28;45323;-82
2023/11/10 10:43:44;;;;;;;;;1.67;1.67;;;;;;;;5074083;28;45946;-79
2023/11/10 10:46:10;;;;;;;;;2.67;2.67;;;;;;;;5062359;28;46280;-78
2023/11/10 10:48:37;;;;;;;;;1.67;1.67;;;;;;;;5080371;28;45360;-77
2023/11/10 10:51:03;;;;;;;;;7.33;3.67;;;;;;;;5075348;28;45348;-80
2023/11/10 10:53:29;;;;;;;;;3.33;2.67;;;;;;;;5077923;28;46469;-79
2023/11/10 10:55:54;;;;;;;;;3.33;1.33;;;;;;;;5063454;28;45361;-78
2023/11/10 10:58:21;;;;;;;;;3.00;2.00;;;;;;;;5080131;28;45426;-78
2023/11/10 11:00:46;;;;;;;;;5.00;4.00;;;;;;;;5080454;28;45820;-79
2023/11/10 11:03:11;;;;;;;;;3.00;2.00;;;;;;;;5080243;28;46245;-78
2023/11/10 11:06:02;;;;;;;;;4.25;4.25;;;;;;;;5080999;28;45433;-80
2023/11/10 11:08:30;;;;;;;;;2.00;2.00;;;;;;;;5080902;28;45162;-81
2023/11/10 11:10:56;;;;;;;;;3.67;3.67;;;;;;;;5081704;28;45302;-82
2023/11/10 11:13:41;;;;;;;;;1.00;1.00;;;;;;;;5082071;28;46425;-82
2023/11/10 11:16:12;;;;;;;;;5.67;4.00;;;;;;;;5079320;28;45349;-80
2023/11/10 11:18:56;;;;;;;;;4.00;2.00;;;;;;;;5064399;28;45291;-79
2023/11/10 11:21:22;;;;;;;;;1.67;1.67;;;;;;;;5080742;28;46447;-79
2023/11/10 11:23:50;;;;;;;;;4.67;3.67;;;;;;;;5081388;28;45426;-82
2023/11/10 11:26:16;;;;;;;;;4.00;4.00;;;;;;;;5082959;28;45336;-81
2023/11/10 11:28:41;;;;;;;;;4.33;1.00;;;;;;;;5061862;28;45540;-79
2023/11/10 11:31:11;;;;;;;;;6.00;4.33;;;;;;;;5060560;28;45254;-79
2023/11/10 11:33:52;;;;;;;;;3.00;2.67;;;;;;;;5059357;28;47278;-81
2023/11/10 11:36:18;;;;;;;;;4.00;4.00;;;;;;;;5060494;28;45423;-79
2023/11/10 11:38:43;;;;;;;;;2.00;2.00;;;;;;;;5077402;28;45411;-80
2023/11/10 11:41:10;;;;;;;;;2.33;2.33;;;;;;;;5081153;28;45509;-82
2023/11/10 11:43:46;;;;;;;;;3.00;2.67;;;;;;;;5073008;28;45506;-83
2023/11/10 11:46:12;;;;;;;;;3.00;2.00;;;;;;;;5060302;28;45359;-80
2023/11/10 11:48:37;;;;;;;;;4.67;3.67;;;;;;;;5070271;28;45290;-79
2023/11/10 11:51:02;;;;;;;;;4.00;3.00;;;;;;;;5079443;28;45279;-81
2023/11/10 11:53:27;;;;;;;;;2.00;2.00;;;;;;;;5070162;27;45502;-80
2023/11/10 11:55:55;;;;;;;;;2.00;2.00;;;;;;;;5059117;28;45362;-79
2023/11/10 11:58:20;;;;;;;;;3.00;2.00;;;;;;;;5078020;28;45379;-80
2023/11/10 12:00:45;;;;;;;;;0.33;0.00;;;;;;;;5076841;28;45583;-78
2023/11/10 12:03:11;;;;;;;;;3.00;3.00;;;;;;;;5079051;28;47539;-80
2023/11/10 12:05:37;;;;;;;;;1.00;1.00;;;;;;;;5076592;28;45668;-82
2023/11/10 12:08:02;;;;;;;;;1.00;1.00;;;;;;;;5059716;28;45362;-80
2023/11/10 12:10:28;;;;;;;;;2.00;1.67;;;;;;;;5074426;28;45592;-83
2023/11/10 12:15:55;;;;;;;;;2.67;2.67;;;;;;;;5076611;28;45348;-83
2023/11/10 12:22:05;;;;;;;;;3.33;3.00;;;;;;;;5074170;28;45470;-84
2023/11/10 12:30:35;;;;;;;;;4.00;1.67;;;;;;;;4992980;28;45811;-83
2023/11/10 12:33:02;;;;;;;;;1.00;1.00;;;;;;;;5079494;28;45529;-83
2023/11/10 12:35:27;;;;;;;;;1.00;1.00;;;;;;;;5059273;28;46721;-79
2023/11/10 12:37:53;;;;;;;;;0.67;0.67;;;;;;;;5077297;28;45361;-78
2023/11/10 12:40:18;;;;;;;;;5.00;3.33;;;;;;;;5078251;28;45676;-86
2023/11/10 12:42:45;;;;;;;;;0.33;0.33;;;;;;;;5059005;28;47474;-81
2023/11/10 12:45:11;;;;;;;;;2.67;2.33;;;;;;;;5058761;28;47030;-82
2023/11/10 12:47:36;;;;;;;;;2.33;1.33;;;;;;;;5058386;28;45351;-82
2023/11/10 12:50:16;;;;;;;;;2.67;2.67;;;;;;;;5077483;28;45392;-82
2023/11/10 12:52:41;;;;;;;;;2.00;2.00;;;;;;;;5059782;28;45490;-84
2023/11/10 12:55:08;;;;;;;;;4.33;2.67;;;;;;;;5071352;28;48031;-80
2023/11/10 12:57:33;;;;;;;;;3.33;2.67;;;;;;;;5079019;28;45501;-81
2023/11/10 13:00:12;;;;;;;;;3.33;1.67;;;;;;;;5083414;28;45326;-79
2023/11/10 13:02:40;;;;;;;;;6.50;4.00;;;;;;;;5082897;28;45790;-81
2023/11/10 13:05:06;;;;;;;;;4.33;4.00;;;;;;;;5083073;28;46292;-78
2023/11/10 13:07:31;;;;;;;;;1.00;1.00;;;;;;;;5082398;28;45426;-78
2023/11/10 13:09:56;;;;;;;;;3.00;3.00;;;;;;;;5083107;28;45329;-80
2023/11/10 13:12:22;;;;;;;;;1.67;0.67;;;;;;;;5063129;28;47297;-80
2023/11/10 13:14:47;;;;;;;;;2.67;1.67;;;;;;;;5081877;28;45617;-79
2023/11/10 13:17:15;;;;;;;;;4.00;3.00;;;;;;;;5081676;28;45355;-79
2023/11/10 13:19:42;;;;;;;;;5.00;2.00;;;;;;;;5062602;28;45254;-78
2023/11/10 13:22:10;;;;;;;;;2.67;1.33;;;;;;;;5062224;28;46246;-80
2023/11/10 13:24:35;;;;;;;;;3.00;2.67;;;;;;;;5080993;28;46600;-82
2023/11/10 13:27:05;;;;;;;;;2.33;2.00;;;;;;;;5079282;28;45891;-80
2023/11/10 13:29:30;;;;;;;;;7.00;5.00;;;;;;;;5071299;28;45334;-82
2023/11/10 13:31:56;;;;;;;;;1.00;1.00;;;;;;;;5061179;28;45319;-81
2023/11/10 13:34:21;;;;;;;;;1.67;1.67;;;;;;;;5061586;28;45858;-79
2023/11/10 13:36:47;;;;;;;;;2.33;2.33;;;;;;;;5062651;28;46090;-81
2023/11/10 13:39:13;;;;;;;;;2.67;2.00;;;;;;;;5062237;28;45787;-81
2023/11/10 14:13:28;;;;;;;;;4.00;3.00;;;;;;;;4811768;29;45556;-82
2023/11/10 14:16:09;;;;;;;;;3.00;3.00;;;;;;;;4831459;29;45598;-81
2023/11/10 14:22:47;;;;;;;;;;;;;;;;;;;;;
2023/11/10 14:34:38;;;;;;;;;2.00;2.00;;;;;;;;4810837;29;45499;-84
2023/11/10 14:43:59;;;;;;;;;4.00;2.00;;;;;;;;4876115;29;45329;-77
2023/11/10 15:08:16;;;;;;;;;2.00;1.33;;;;;;;;4828958;29;45482;-78
2023/11/10 15:10:48;;;;;;;;;3.67;3.67;;;;;;;;4931052;28;46310;-81
2023/11/10 15:14:03;;;;;;;;;4.33;2.67;;;;;;;;4940907;28;45506;-82
2023/11/10 15:16:58;;;;;;;;;4.33;3.67;;;;;;;;4900092;29;45357;-84
2023/11/10 15:22:41;;;;;;;;;;;;;;;;;;;;;
2023/11/10 15:42:00;;;;;;;;;;;;;;;;;;;;;
2023/11/10 15:54:49;;;;;;;;;;;;;;;;;;;;;
2023/11/10 16:13:29;;;;;;;;;6.00;4.67;;;;;;;;4973514;28;45532;-85
2023/11/10 16:15:55;;;;;;;;;6.67;4.67;;;;;;;;5055579;28;45599;-83
2023/11/10 16:18:25;;;;;;;;;3.67;2.67;;;;;;;;5064530;28;45508;-81
2023/11/10 16:20:53;;;;;;;;;6.33;5.67;;;;;;;;5077320;28;46167;-84
2023/11/10 16:23:20;;;;;;;;;4.00;3.00;;;;;;;;5064527;28;47208;-83
2023/11/10 16:25:45;;;;;;;;;7.33;7.00;;;;;;;;5062020;28;45361;-84
2023/11/10 16:28:11;;;;;;;;;10.00;8.00;;;;;;;;5059623;28;45289;-82
2023/11/10 16:30:51;;;;;;;;;8.00;8.00;;;;;;;;5050714;28;47182;-85
2023/11/10 16:33:43;;;;;;;;;5.67;5.00;;;;;;;;5054315;28;47017;-86
2023/11/10 16:36:10;;;;;;;;;6.33;6.00;;;;;;;;5054397;28;45435;-85
2023/11/10 16:38:37;;;;;;;;;3.33;2.00;;;;;;;;5072855;28;45494;-84
2023/11/10 16:41:03;;;;;;;;;3.00;3.00;;;;;;;;5061221;28;45455;-85
2023/11/10 16:43:28;;;;;;;;;5.67;4.00;;;;;;;;5063771;28;46930;-86
2023/11/10 16:46:02;;;;;;;;;9.33;8.00;;;;;;;;5060386;28;45303;-87
2023/11/10 16:48:31;;;;;;;;;6.67;6.00;;;;;;;;5062458;28;45663;-84
2023/11/10 16:50:56;;;;;;;;;4.00;4.00;;;;;;;;5059639;28;46025;-82
2023/11/10 16:53:21;;;;;;;;;7.00;6.00;;;;;;;;5065241;28;46540;-82